1A9

Prattville - Grouby Field Airport

Prattville, Alabama, USA
METAR K1A9 230915Z AUTO 00000KT 1/4SM FG OVC001 13/13 A2990 RMK AO2 T01320132
Observed Flight Rules
Apr-23 @ 09:15 UTC (17 minutes ago) Instrument Flight Rules
Visibility Clouds Conditions
1/4 miles
  • Overcast at 100' AGL
  • Fog
Temperatures Readings
Current 13°C / 55°F
Dewpoint 13°C / 55°F
Humidity 100%
Altimeter 29.9" Hg
Pressure 1013 hPa
Elevation 69
METAR K1A9 230915Z AUTO 00000KT 1/4SM FG OVC001 13/13 A2990 RMK AO2 T01320132
Observed Flight Rules
Apr-23 @ 09:15 UTC
(17 minutes ago)
LIFR
Clouds
  • Overcast at 100' AGL
Conditions
  • Fog
Temperature Dewpoint
13°C / 55°F 13°C / 55°F
Humidity Altimeter Pressure
100% 29.9" Hg 1013 hPa